sensor_id;sensor_type;location;lat;lon;timestamp;temperature;humidity
37560;DHT22;23398;50.928;7.084;2023-10-31T00:01:24;16.70;93.10
37560;DHT22;23398;50.928;7.084;2023-10-31T00:03:49;16.40;92.80
37560;DHT22;23398;50.928;7.084;2023-10-31T00:06:15;16.30;92.60
37560;DHT22;23398;50.928;7.084;2023-10-31T00:08:40;16.30;92.20
37560;DHT22;23398;50.928;7.084;2023-10-31T00:11:06;16.30;92.00
37560;DHT22;23398;50.928;7.084;2023-10-31T00:13:31;16.20;91.90
37560;DHT22;23398;50.928;7.084;2023-10-31T00:15:57;16.30;92.10
37560;DHT22;23398;50.928;7.084;2023-10-31T00:18:23;16.30;92.20
37560;DHT22;23398;50.928;7.084;2023-10-31T00:20:49;16.20;92.40
37560;DHT22;23398;50.928;7.084;2023-10-31T00:23:15;17.10;92.80
37560;DHT22;23398;50.928;7.084;2023-10-31T00:25:40;16.20;92.50
37560;DHT22;23398;50.928;7.084;2023-10-31T00:28:06;16.20;92.40
37560;DHT22;23398;50.928;7.084;2023-10-31T00:30:32;16.20;92.30
37560;DHT22;23398;50.928;7.084;2023-10-31T00:32:57;16.20;92.20
37560;DHT22;23398;50.928;7.084;2023-10-31T00:35:23;16.20;92.10
37560;DHT22;23398;50.928;7.084;2023-10-31T00:37:48;16.70;92.30
37560;DHT22;23398;50.928;7.084;2023-10-31T00:40:14;16.40;92.20
37560;DHT22;23398;50.928;7.084;2023-10-31T00:42:41;16.30;92.30
37560;DHT22;23398;50.928;7.084;2023-10-31T00:45:07;16.20;92.20
37560;DHT22;23398;50.928;7.084;2023-10-31T00:47:34;16.30;92.00
37560;DHT22;23398;50.928;7.084;2023-10-31T00:49:59;16.20;91.80
37560;DHT22;23398;50.928;7.084;2023-10-31T00:52:25;16.60;92.00
37560;DHT22;23398;50.928;7.084;2023-10-31T00:54:50;16.30;91.80
37560;DHT22;23398;50.928;7.084;2023-10-31T00:57:16;16.20;91.50
37560;DHT22;23398;50.928;7.084;2023-10-31T00:59:42;16.20;91.40
37560;DHT22;23398;50.928;7.084;2023-10-31T01:02:08;16.20;90.90
37560;DHT22;23398;50.928;7.084;2023-10-31T01:04:33;16.20;90.60
37560;DHT22;23398;50.928;7.084;2023-10-31T01:07:00;16.70;90.40
37560;DHT22;23398;50.928;7.084;2023-10-31T01:09:26;16.10;90.00
37560;DHT22;23398;50.928;7.084;2023-10-31T01:11:51;16.10;89.80
37560;DHT22;23398;50.928;7.084;2023-10-31T01:14:17;16.10;89.50
37560;DHT22;23398;50.928;7.084;2023-10-31T01:16:43;16.10;89.40
37560;DHT22;23398;50.928;7.084;2023-10-31T01:19:08;16.00;89.20
37560;DHT22;23398;50.928;7.084;2023-10-31T01:21:34;16.00;88.80
37560;DHT22;23398;50.928;7.084;2023-10-31T01:23:59;16.00;88.80
37560;DHT22;23398;50.928;7.084;2023-10-31T01:26:25;16.00;89.00
37560;DHT22;23398;50.928;7.084;2023-10-31T01:28:52;15.90;88.30
37560;DHT22;23398;50.928;7.084;2023-10-31T01:31:17;15.90;88.30
37560;DHT22;23398;50.928;7.084;2023-10-31T01:33:43;15.80;87.00
37560;DHT22;23398;50.928;7.084;2023-10-31T01:36:09;15.80;86.70
37560;DHT22;23398;50.928;7.084;2023-10-31T01:38:36;15.70;86.50
37560;DHT22;23398;50.928;7.084;2023-10-31T01:41:02;16.10;86.80
37560;DHT22;23398;50.928;7.084;2023-10-31T01:43:32;15.60;86.40
37560;DHT22;23398;50.928;7.084;2023-10-31T01:45:57;15.50;86.30
37560;DHT22;23398;50.928;7.084;2023-10-31T01:48:23;15.40;86.30
37560;DHT22;23398;50.928;7.084;2023-10-31T01:50:51;15.30;86.30
37560;DHT22;23398;50.928;7.084;2023-10-31T01:53:17;15.20;86.80
37560;DHT22;23398;50.928;7.084;2023-10-31T01:55:44;15.20;87.40
37560;DHT22;23398;50.928;7.084;2023-10-31T01:58:10;15.70;88.70
37560;DHT22;23398;50.928;7.084;2023-10-31T02:00:39;15.10;88.60
37560;DHT22;23398;50.928;7.084;2023-10-31T02:03:07;14.90;88.70
37560;DHT22;23398;50.928;7.084;2023-10-31T02:05:33;14.90;89.20
37560;DHT22;23398;50.928;7.084;2023-10-31T02:08:00;14.90;89.60
37560;DHT22;23398;50.928;7.084;2023-10-31T02:10:25;14.80;90.00
37560;DHT22;23398;50.928;7.084;2023-10-31T02:12:51;14.80;90.30
37560;DHT22;23398;50.928;7.084;2023-10-31T02:15:16;15.00;90.70
37560;DHT22;23398;50.928;7.084;2023-10-31T02:17:42;14.70;90.90
37560;DHT22;23398;50.928;7.084;2023-10-31T02:20:08;14.70;91.10
37560;DHT22;23398;50.928;7.084;2023-10-31T02:22:33;14.70;91.30
37560;DHT22;23398;50.928;7.084;2023-10-31T02:24:59;14.70;91.30
37560;DHT22;23398;50.928;7.084;2023-10-31T02:27:24;14.70;91.40
37560;DHT22;23398;50.928;7.084;2023-10-31T02:29:50;14.70;91.40
37560;DHT22;23398;50.928;7.084;2023-10-31T02:32:16;15.40;91.70
37560;DHT22;23398;50.928;7.084;2023-10-31T02:34:41;14.70;91.50
37560;DHT22;23398;50.928;7.084;2023-10-31T02:37:07;14.70;91.50
37560;DHT22;23398;50.928;7.084;2023-10-31T02:39:33;14.70;91.50
37560;DHT22;23398;50.928;7.084;2023-10-31T02:41:59;15.30;91.60
37560;DHT22;23398;50.928;7.084;2023-10-31T02:44:24;14.70;91.40
37560;DHT22;23398;50.928;7.084;2023-10-31T02:46:50;15.50;91.80
37560;DHT22;23398;50.928;7.084;2023-10-31T02:49:15;14.70;91.50
37560;DHT22;23398;50.928;7.084;2023-10-31T02:51:41;14.70;91.50
37560;DHT22;23398;50.928;7.084;2023-10-31T02:54:06;14.70;91.40
37560;DHT22;23398;50.928;7.084;2023-10-31T02:56:32;14.70;91.10
37560;DHT22;23398;50.928;7.084;2023-10-31T02:58:57;15.30;91.20
37560;DHT22;23398;50.928;7.084;2023-10-31T03:01:23;14.70;90.90
37560;DHT22;23398;50.928;7.084;2023-10-31T03:03:48;14.60;91.00
37560;DHT22;23398;50.928;7.084;2023-10-31T03:06:14;14.60;91.20
37560;DHT22;23398;50.928;7.084;2023-10-31T03:08:39;14.60;91.30
37560;DHT22;23398;50.928;7.084;2023-10-31T03:11:05;14.50;91.50
37560;DHT22;23398;50.928;7.084;2023-10-31T03:13:30;14.50;91.70
37560;DHT22;23398;50.928;7.084;2023-10-31T03:15:56;14.50;91.80
37560;DHT22;23398;50.928;7.084;2023-10-31T03:18:21;14.60;92.00
37560;DHT22;23398;50.928;7.084;2023-10-31T03:20:48;15.20;92.40
37560;DHT22;23398;50.928;7.084;2023-10-31T03:23:14;14.60;92.10
37560;DHT22;23398;50.928;7.084;2023-10-31T03:25:40;14.60;92.00
37560;DHT22;23398;50.928;7.084;2023-10-31T03:28:18;14.80;92.10
37560;DHT22;23398;50.928;7.084;2023-10-31T03:30:48;14.60;92.00
37560;DHT22;23398;50.928;7.084;2023-10-31T03:33:14;14.60;91.90
37560;DHT22;23398;50.928;7.084;2023-10-31T03:35:40;14.90;91.90
37560;DHT22;23398;50.928;7.084;2023-10-31T03:38:06;14.60;91.70
37560;DHT22;23398;50.928;7.084;2023-10-31T03:40:31;14.70;91.70
37560;DHT22;23398;50.928;7.084;2023-10-31T03:42:57;14.70;91.60
37560;DHT22;23398;50.928;7.084;2023-10-31T03:45:22;14.70;91.50
37560;DHT22;23398;50.928;7.084;2023-10-31T03:47:48;14.70;91.40
37560;DHT22;23398;50.928;7.084;2023-10-31T03:50:14;14.80;91.30
37560;DHT22;23398;50.928;7.084;2023-10-31T03:52:40;14.80;91.20
37560;DHT22;23398;50.928;7.084;2023-10-31T03:55:06;14.80;91.10
37560;DHT22;23398;50.928;7.084;2023-10-31T03:57:32;14.90;91.20
37560;DHT22;23398;50.928;7.084;2023-10-31T03:59:57;14.90;91.20
37560;DHT22;23398;50.928;7.084;2023-10-31T04:02:23;15.00;91.10
37560;DHT22;23398;50.928;7.084;2023-10-31T04:04:48;14.90;90.60
37560;DHT22;23398;50.928;7.084;2023-10-31T04:07:14;14.90;90.50
37560;DHT22;23398;50.928;7.084;2023-10-31T04:09:40;14.90;90.40
37560;DHT22;23398;50.928;7.084;2023-10-31T04:12:06;14.90;90.30
37560;DHT22;23398;50.928;7.084;2023-10-31T04:14:32;15.00;90.40
37560;DHT22;23398;50.928;7.084;2023-10-31T04:16:57;14.90;90.30
37560;DHT22;23398;50.928;7.084;2023-10-31T04:19:23;15.00;90.20
37560;DHT22;23398;50.928;7.084;2023-10-31T04:21:48;15.00;90.20
37560;DHT22;23398;50.928;7.084;2023-10-31T04:24:14;15.00;90.10
37560;DHT22;23398;50.928;7.084;2023-10-31T04:26:42;15.00;90.10
37560;DHT22;23398;50.928;7.084;2023-10-31T04:29:08;15.10;90.00
37560;DHT22;23398;50.928;7.084;2023-10-31T04:31:34;15.10;90.00
37560;DHT22;23398;50.928;7.084;2023-10-31T04:33:59;15.10;89.70
37560;DHT22;23398;50.928;7.084;2023-10-31T04:36:25;15.10;89.60
37560;DHT22;23398;50.928;7.084;2023-10-31T04:38:50;15.10;89.30
37560;DHT22;23398;50.928;7.084;2023-10-31T04:41:16;16.00;90.10
37560;DHT22;23398;50.928;7.084;2023-10-31T04:43:41;15.10;89.50
37560;DHT22;23398;50.928;7.084;2023-10-31T04:46:07;15.20;89.40
37560;DHT22;23398;50.928;7.084;2023-10-31T04:48:33;15.10;89.50
37560;DHT22;23398;50.928;7.084;2023-10-31T04:50:58;15.20;89.80
37560;DHT22;23398;50.928;7.084;2023-10-31T04:53:24;15.20;89.60
37560;DHT22;23398;50.928;7.084;2023-10-31T04:55:50;15.20;89.00
37560;DHT22;23398;50.928;7.084;2023-10-31T04:58:15;15.20;88.70
37560;DHT22;23398;50.928;7.084;2023-10-31T05:00:41;15.20;88.50
37560;DHT22;23398;50.928;7.084;2023-10-31T05:03:07;15.20;88.40
37560;DHT22;23398;50.928;7.084;2023-10-31T05:05:32;15.20;88.40
37560;DHT22;23398;50.928;7.084;2023-10-31T05:07:58;15.20;88.60
37560;DHT22;23398;50.928;7.084;2023-10-31T05:10:24;15.60;89.00
37560;DHT22;23398;50.928;7.084;2023-10-31T05:12:50;15.20;88.40
37560;DHT22;23398;50.928;7.084;2023-10-31T05:15:16;15.20;88.00
37560;DHT22;23398;50.928;7.084;2023-10-31T05:17:42;15.20;88.10
37560;DHT22;23398;50.928;7.084;2023-10-31T05:20:08;15.20;88.20
37560;DHT22;23398;50.928;7.084;2023-10-31T05:22:35;15.20;88.20
37560;DHT22;23398;50.928;7.084;2023-10-31T05:25:00;15.70;88.90
37560;DHT22;23398;50.928;7.084;2023-10-31T05:27:26;15.30;88.50
37560;DHT22;23398;50.928;7.084;2023-10-31T05:29:52;15.30;88.10
37560;DHT22;23398;50.928;7.084;2023-10-31T05:32:17;15.30;87.90
37560;DHT22;23398;50.928;7.084;2023-10-31T05:34:43;16.20;88.40
37560;DHT22;23398;50.928;7.084;2023-10-31T05:37:08;15.20;87.10
37560;DHT22;23398;50.928;7.084;2023-10-31T05:39:34;15.10;86.90
37560;DHT22;23398;50.928;7.084;2023-10-31T05:42:02;15.60;87.40
37560;DHT22;23398;50.928;7.084;2023-10-31T05:44:27;15.20;87.10
37560;DHT22;23398;50.928;7.084;2023-10-31T05:46:53;15.10;87.10
37560;DHT22;23398;50.928;7.084;2023-10-31T05:49:19;15.10;86.90
37560;DHT22;23398;50.928;7.084;2023-10-31T05:51:50;15.20;87.00
37560;DHT22;23398;50.928;7.084;2023-10-31T05:54:17;15.10;86.90
37560;DHT22;23398;50.928;7.084;2023-10-31T05:56:42;15.10;86.90
37560;DHT22;23398;50.928;7.084;2023-10-31T05:59:13;15.20;87.20
37560;DHT22;23398;50.928;7.084;2023-10-31T06:01:38;15.10;87.30
37560;DHT22;23398;50.928;7.084;2023-10-31T06:04:04;15.30;87.60
37560;DHT22;23398;50.928;7.084;2023-10-31T06:06:32;15.20;87.40
37560;DHT22;23398;50.928;7.084;2023-10-31T06:08:58;15.20;87.30
37560;DHT22;23398;50.928;7.084;2023-10-31T06:11:23;15.20;87.20
37560;DHT22;23398;50.928;7.084;2023-10-31T06:13:49;15.20;87.20
37560;DHT22;23398;50.928;7.084;2023-10-31T06:16:14;15.20;87.10
37560;DHT22;23398;50.928;7.084;2023-10-31T06:18:40;15.20;87.00
37560;DHT22;23398;50.928;7.084;2023-10-31T06:21:06;15.20;86.80
37560;DHT22;23398;50.928;7.084;2023-10-31T06:23:35;15.30;86.70
37560;DHT22;23398;50.928;7.084;2023-10-31T06:26:00;15.30;86.90
37560;DHT22;23398;50.928;7.084;2023-10-31T06:28:26;15.30;86.70
37560;DHT22;23398;50.928;7.084;2023-10-31T06:30:51;16.10;87.50
37560;DHT22;23398;50.928;7.084;2023-10-31T06:33:17;15.30;85.70
37560;DHT22;23398;50.928;7.084;2023-10-31T06:35:43;15.30;86.50
37560;DHT22;23398;50.928;7.084;2023-10-31T06:38:08;15.30;86.10
37560;DHT22;23398;50.928;7.084;2023-10-31T06:40:34;15.30;86.00
37560;DHT22;23398;50.928;7.084;2023-10-31T06:43:01;15.30;86.00
37560;DHT22;23398;50.928;7.084;2023-10-31T06:45:27;15.30;85.90
37560;DHT22;23398;50.928;7.084;2023-10-31T06:47:53;15.30;85.90
37560;DHT22;23398;50.928;7.084;2023-10-31T06:50:19;15.30;85.80
37560;DHT22;23398;50.928;7.084;2023-10-31T06:52:44;15.30;85.70
37560;DHT22;23398;50.928;7.084;2023-10-31T06:55:10;15.30;85.70
37560;DHT22;23398;50.928;7.084;2023-10-31T06:57:35;15.70;85.90
37560;DHT22;23398;50.928;7.084;2023-10-31T07:00:01;15.30;85.30
37560;DHT22;23398;50.928;7.084;2023-10-31T07:02:26;15.30;85.20
37560;DHT22;23398;50.928;7.084;2023-10-31T07:04:52;15.30;85.20
37560;DHT22;23398;50.928;7.084;2023-10-31T07:07:17;16.00;86.10
37560;DHT22;23398;50.928;7.084;2023-10-31T07:09:43;15.30;85.60
37560;DHT22;23398;50.928;7.084;2023-10-31T07:12:09;16.20;86.80
37560;DHT22;23398;50.928;7.084;2023-10-31T07:14:35;15.30;86.30
37560;DHT22;23398;50.928;7.084;2023-10-31T07:17:01;15.50;86.70
37560;DHT22;23398;50.928;7.084;2023-10-31T07:19:26;15.30;86.40
37560;DHT22;23398;50.928;7.084;2023-10-31T07:21:52;15.50;86.30
37560;DHT22;23398;50.928;7.084;2023-10-31T07:24:18;15.40;86.30
37560;DHT22;23398;50.928;7.084;2023-10-31T07:26:44;15.40;86.50
37560;DHT22;23398;50.928;7.084;2023-10-31T07:29:09;15.40;86.10
37560;DHT22;23398;50.928;7.084;2023-10-31T07:31:35;15.50;86.00
37560;DHT22;23398;50.928;7.084;2023-10-31T07:34:06;15.50;86.00
37560;DHT22;23398;50.928;7.084;2023-10-31T07:36:32;15.50;85.80
37560;DHT22;23398;50.928;7.084;2023-10-31T07:39:00;15.50;85.90
37560;DHT22;23398;50.928;7.084;2023-10-31T07:41:25;15.50;85.80
37560;DHT22;23398;50.928;7.084;2023-10-31T07:43:51;15.50;85.70
37560;DHT22;23398;50.928;7.084;2023-10-31T07:46:16;15.50;85.40
37560;DHT22;23398;50.928;7.084;2023-10-31T07:48:42;15.50;85.50
37560;DHT22;23398;50.928;7.084;2023-10-31T07:51:07;15.70;85.70
37560;DHT22;23398;50.928;7.084;2023-10-31T07:53:33;16.00;85.80
37560;DHT22;23398;50.928;7.084;2023-10-31T07:55:58;15.60;85.30
37560;DHT22;23398;50.928;7.084;2023-10-31T07:58:24;15.70;85.20
37560;DHT22;23398;50.928;7.084;2023-10-31T08:00:50;15.70;85.00
37560;DHT22;23398;50.928;7.084;2023-10-31T08:03:15;16.00;85.50
37560;DHT22;23398;50.928;7.084;2023-10-31T08:05:41;15.80;85.40
37560;DHT22;23398;50.928;7.084;2023-10-31T08:08:07;15.80;85.30
37560;DHT22;23398;50.928;7.084;2023-10-31T08:10:33;16.10;85.20
37560;DHT22;23398;50.928;7.084;2023-10-31T08:12:59;15.90;85.20
37560;DHT22;23398;50.928;7.084;2023-10-31T08:15:25;16.00;85.50
37560;DHT22;23398;50.928;7.084;2023-10-31T08:17:50;16.10;85.20
37560;DHT22;23398;50.928;7.084;2023-10-31T08:20:16;16.30;84.80
37560;DHT22;23398;50.928;7.084;2023-10-31T08:22:42;16.40;84.40
37560;DHT22;23398;50.928;7.084;2023-10-31T08:25:10;16.50;83.30
37560;DHT22;23398;50.928;7.084;2023-10-31T08:27:36;17.20;83.00
37560;DHT22;23398;50.928;7.084;2023-10-31T08:30:01;16.80;81.40
37560;DHT22;23398;50.928;7.084;2023-10-31T08:32:27;16.90;81.10
37560;DHT22;23398;50.928;7.084;2023-10-31T08:34:54;16.90;80.80
37560;DHT22;23398;50.928;7.084;2023-10-31T08:37:19;17.10;81.00
37560;DHT22;23398;50.928;7.084;2023-10-31T08:39:45;17.20;80.50
37560;DHT22;23398;50.928;7.084;2023-10-31T08:42:10;17.30;79.70
37560;DHT22;23398;50.928;7.084;2023-10-31T08:44:36;17.40;79.30
37560;DHT22;23398;50.928;7.084;2023-10-31T08:47:03;17.40;78.60
37560;DHT22;23398;50.928;7.084;2023-10-31T08:49:29;17.50;78.40
37560;DHT22;23398;50.928;7.084;2023-10-31T08:51:55;17.50;78.00
37560;DHT22;23398;50.928;7.084;2023-10-31T08:54:20;17.60;77.70
37560;DHT22;23398;50.928;7.084;2023-10-31T08:56:46;17.70;77.50
37560;DHT22;23398;50.928;7.084;2023-10-31T08:59:11;17.60;76.80
37560;DHT22;23398;50.928;7.084;2023-10-31T09:01:37;17.90;76.70
37560;DHT22;23398;50.928;7.084;2023-10-31T09:04:03;17.70;76.40
37560;DHT22;23398;50.928;7.084;2023-10-31T09:06:28;17.80;76.30
37560;DHT22;23398;50.928;7.084;2023-10-31T09:08:54;18.40;77.00
37560;DHT22;23398;50.928;7.084;2023-10-31T09:11:19;18.50;77.10
37560;DHT22;23398;50.928;7.084;2023-10-31T09:13:45;17.90;76.00
37560;DHT22;23398;50.928;7.084;2023-10-31T09:16:11;17.90;75.30
37560;DHT22;23398;50.928;7.084;2023-10-31T09:18:37;18.40;75.70
37560;DHT22;23398;50.928;7.084;2023-10-31T09:21:02;18.00;74.70
37560;DHT22;23398;50.928;7.084;2023-10-31T09:23:28;18.00;74.10
37560;DHT22;23398;50.928;7.084;2023-10-31T09:25:55;18.00;73.90
37560;DHT22;23398;50.928;7.084;2023-10-31T09:28:20;18.00;74.00
37560;DHT22;23398;50.928;7.084;2023-10-31T09:30:46;18.10;74.10
37560;DHT22;23398;50.928;7.084;2023-10-31T09:33:11;17.90;73.90
37560;DHT22;23398;50.928;7.084;2023-10-31T09:35:37;17.80;73.80
37560;DHT22;23398;50.928;7.084;2023-10-31T09:38:02;17.90;73.70
37560;DHT22;23398;50.928;7.084;2023-10-31T09:40:28;17.80;73.60
37560;DHT22;23398;50.928;7.084;2023-10-31T09:42:54;17.80;73.30
37560;DHT22;23398;50.928;7.084;2023-10-31T09:45:19;17.80;73.30
37560;DHT22;23398;50.928;7.084;2023-10-31T09:47:45;17.80;73.30
37560;DHT22;23398;50.928;7.084;2023-10-31T09:50:11;17.80;73.60
37560;DHT22;23398;50.928;7.084;2023-10-31T09:52:37;18.10;74.00
37560;DHT22;23398;50.928;7.084;2023-10-31T09:55:03;17.80;73.90
37560;DHT22;23398;50.928;7.084;2023-10-31T09:57:30;17.80;73.80
37560;DHT22;23398;50.928;7.084;2023-10-31T09:59:55;17.80;73.70
37560;DHT22;23398;50.928;7.084;2023-10-31T10:02:21;17.80;73.70
37560;DHT22;23398;50.928;7.084;2023-10-31T10:04:49;18.00;73.80
37560;DHT22;23398;50.928;7.084;2023-10-31T10:07:16;18.00;73.40
37560;DHT22;23398;50.928;7.084;2023-10-31T10:09:43;18.00;72.80
37560;DHT22;23398;50.928;7.084;2023-10-31T10:12:20;18.10;72.40
37560;DHT22;23398;50.928;7.084;2023-10-31T10:14:46;18.10;72.30
37560;DHT22;23398;50.928;7.084;2023-10-31T10:17:17;18.20;72.50
37560;DHT22;23398;50.928;7.084;2023-10-31T10:19:45;18.30;72.30
37560;DHT22;23398;50.928;7.084;2023-10-31T10:22:10;18.40;72.70
37560;DHT22;23398;50.928;7.084;2023-10-31T10:24:39;18.90;72.60
37560;DHT22;23398;50.928;7.084;2023-10-31T10:27:07;18.50;71.80
37560;DHT22;23398;50.928;7.084;2023-10-31T10:29:33;18.60;71.80
37560;DHT22;23398;50.928;7.084;2023-10-31T10:31:59;18.70;71.40
37560;DHT22;23398;50.928;7.084;2023-10-31T10:34:24;18.70;71.00
37560;DHT22;23398;50.928;7.084;2023-10-31T10:36:50;18.80;70.80
37560;DHT22;23398;50.928;7.084;2023-10-31T10:39:21;19.00;69.60
37560;DHT22;23398;50.928;7.084;2023-10-31T10:41:55;19.10;70.10
37560;DHT22;23398;50.928;7.084;2023-10-31T10:44:34;19.20;70.00
37560;DHT22;23398;50.928;7.084;2023-10-31T10:47:12;19.30;69.40
37560;DHT22;23398;50.928;7.084;2023-10-31T10:49:41;19.30;68.70
37560;DHT22;23398;50.928;7.084;2023-10-31T10:52:11;20.00;69.10
37560;DHT22;23398;50.928;7.084;2023-10-31T10:54:45;19.50;68.20
37560;DHT22;23398;50.928;7.084;2023-10-31T11:00:05;19.60;66.50
37560;DHT22;23398;50.928;7.084;2023-10-31T11:02:41;19.60;67.00
37560;DHT22;23398;50.928;7.084;2023-10-31T11:05:08;19.70;66.90
37560;DHT22;23398;50.928;7.084;2023-10-31T11:07:38;19.70;66.50
37560;DHT22;23398;50.928;7.084;2023-10-31T11:10:04;19.80;66.20
37560;DHT22;23398;50.928;7.084;2023-10-31T11:12:31;19.90;65.80
37560;DHT22;23398;50.928;7.084;2023-10-31T11:14:58;20.70;66.50
37560;DHT22;23398;50.928;7.084;2023-10-31T11:17:28;20.00;65.60
37560;DHT22;23398;50.928;7.084;2023-10-31T11:19:56;19.90;65.30
37560;DHT22;23398;50.928;7.084;2023-10-31T11:22:22;20.00;65.10
37560;DHT22;23398;50.928;7.084;2023-10-31T11:24:50;20.10;65.10
37560;DHT22;23398;50.928;7.084;2023-10-31T11:27:17;20.00;64.80
37560;DHT22;23398;50.928;7.084;2023-10-31T11:29:43;20.10;65.00
37560;DHT22;23398;50.928;7.084;2023-10-31T11:32:10;20.00;64.80
37560;DHT22;23398;50.928;7.084;2023-10-31T11:34:38;20.10;64.70
37560;DHT22;23398;50.928;7.084;2023-10-31T11:37:27;20.10;64.30
37560;DHT22;23398;50.928;7.084;2023-10-31T11:40:18;20.30;64.60
37560;DHT22;23398;50.928;7.084;2023-10-31T11:42:51;20.20;65.10
37560;DHT22;23398;50.928;7.084;2023-10-31T11:45:41;20.20;64.20
37560;DHT22;23398;50.928;7.084;2023-10-31T11:48:07;20.20;63.40
37560;DHT22;23398;50.928;7.084;2023-10-31T11:50:34;20.20;63.90
37560;DHT22;23398;50.928;7.084;2023-10-31T11:53:12;20.20;64.10
37560;DHT22;23398;50.928;7.084;2023-10-31T11:55:46;20.30;64.30
37560;DHT22;23398;50.928;7.084;2023-10-31T11:58:18;20.30;63.80
37560;DHT22;23398;50.928;7.084;2023-10-31T12:00:49;20.30;63.80
37560;DHT22;23398;50.928;7.084;2023-10-31T12:03:20;20.40;63.70
37560;DHT22;23398;50.928;7.084;2023-10-31T12:05:59;21.00;64.10
37560;DHT22;23398;50.928;7.084;2023-10-31T12:08:28;21.00;64.00
37560;DHT22;23398;50.928;7.084;2023-10-31T12:11:12;21.30;64.90
37560;DHT22;23398;50.928;7.084;2023-10-31T12:13:40;20.60;63.40
37560;DHT22;23398;50.928;7.084;2023-10-31T12:16:07;20.70;63.80
37560;DHT22;23398;50.928;7.084;2023-10-31T12:18:36;20.70;63.60
37560;DHT22;23398;50.928;7.084;2023-10-31T12:21:02;20.70;63.80
37560;DHT22;23398;50.928;7.084;2023-10-31T12:23:28;20.80;63.80
37560;DHT22;23398;50.928;7.084;2023-10-31T12:25:54;20.90;63.80
37560;DHT22;23398;50.928;7.084;2023-10-31T12:28:21;20.90;63.90
37560;DHT22;23398;50.928;7.084;2023-10-31T12:30:48;21.00;63.30
37560;DHT22;23398;50.928;7.084;2023-10-31T12:33:14;21.10;63.10
37560;DHT22;23398;50.928;7.084;2023-10-31T12:35:41;21.10;63.10
37560;DHT22;23398;50.928;7.084;2023-10-31T12:38:09;21.20;63.00
37560;DHT22;23398;50.928;7.084;2023-10-31T12:40:35;21.20;62.60
37560;DHT22;23398;50.928;7.084;2023-10-31T12:43:02;21.30;62.20
37560;DHT22;23398;50.928;7.084;2023-10-31T12:45:28;21.30;62.50
37560;DHT22;23398;50.928;7.084;2023-10-31T12:50:27;21.30;61.20
37560;DHT22;23398;50.928;7.084;2023-10-31T12:52:54;21.30;61.40
37560;DHT22;23398;50.928;7.084;2023-10-31T12:55:25;21.30;61.20
37560;DHT22;23398;50.928;7.084;2023-10-31T12:57:51;21.90;61.90
37560;DHT22;23398;50.928;7.084;2023-10-31T13:00:19;21.20;61.10
37560;DHT22;23398;50.928;7.084;2023-10-31T13:02:50;21.20;61.20
37560;DHT22;23398;50.928;7.084;2023-10-31T13:05:16;21.10;61.50
37560;DHT22;23398;50.928;7.084;2023-10-31T13:07:49;21.10;61.40
37560;DHT22;23398;50.928;7.084;2023-10-31T13:10:16;21.10;61.00
37560;DHT22;23398;50.928;7.084;2023-10-31T13:12:49;21.10;61.10
37560;DHT22;23398;50.928;7.084;2023-10-31T13:15:15;21.00;60.80
37560;DHT22;23398;50.928;7.084;2023-10-31T13:17:41;21.00;60.80
37560;DHT22;23398;50.928;7.084;2023-10-31T13:20:09;20.90;60.60
37560;DHT22;23398;50.928;7.084;2023-10-31T13:22:38;20.80;60.30
37560;DHT22;23398;50.928;7.084;2023-10-31T13:25:05;20.70;60.70
37560;DHT22;23398;50.928;7.084;2023-10-31T13:27:36;20.60;60.60
37560;DHT22;23398;50.928;7.084;2023-10-31T13:30:06;20.50;61.10
37560;DHT22;23398;50.928;7.084;2023-10-31T13:32:31;20.40;61.00
37560;DHT22;23398;50.928;7.084;2023-10-31T13:34:57;20.20;61.00
37560;DHT22;23398;50.928;7.084;2023-10-31T13:37:23;20.90;62.00
37560;DHT22;23398;50.928;7.084;2023-10-31T13:39:48;20.00;61.20
37560;DHT22;23398;50.928;7.084;2023-10-31T13:42:14;19.90;61.50
37560;DHT22;23398;50.928;7.084;2023-10-31T13:44:43;19.80;61.40
37560;DHT22;23398;50.928;7.084;2023-10-31T13:47:09;19.50;61.50
37560;DHT22;23398;50.928;7.084;2023-10-31T13:49:35;19.50;61.90
37560;DHT22;23398;50.928;7.084;2023-10-31T13:52:01;19.40;61.80
37560;DHT22;23398;50.928;7.084;2023-10-31T13:54:26;19.40;62.10
37560;DHT22;23398;50.928;7.084;2023-10-31T13:56:52;19.30;62.10
37560;DHT22;23398;50.928;7.084;2023-10-31T13:59:18;19.20;62.20
37560;DHT22;23398;50.928;7.084;2023-10-31T14:01:44;19.20;62.10
37560;DHT22;23398;50.928;7.084;2023-10-31T14:04:13;19.60;62.50
37560;DHT22;23398;50.928;7.084;2023-10-31T14:06:40;19.10;61.90
37560;DHT22;23398;50.928;7.084;2023-10-31T14:09:07;19.00;62.00
37560;DHT22;23398;50.928;7.084;2023-10-31T14:11:33;18.90;62.10
37560;DHT22;23398;50.928;7.084;2023-10-31T14:14:02;19.00;62.10
37560;DHT22;23398;50.928;7.084;2023-10-31T14:16:32;18.90;62.20
37560;DHT22;23398;50.928;7.084;2023-10-31T14:18:58;18.80;63.20
37560;DHT22;23398;50.928;7.084;2023-10-31T14:21:23;18.70;62.40
37560;DHT22;23398;50.928;7.084;2023-10-31T14:23:51;18.70;62.50
37560;DHT22;23398;50.928;7.084;2023-10-31T14:26:23;19.40;63.20
37560;DHT22;23398;50.928;7.084;2023-10-31T14:28:49;18.50;62.50
37560;DHT22;23398;50.928;7.084;2023-10-31T14:31:16;18.40;62.80
37560;DHT22;23398;50.928;7.084;2023-10-31T14:33:42;18.40;63.10
37560;DHT22;23398;50.928;7.084;2023-10-31T14:36:09;18.30;63.50
37560;DHT22;23398;50.928;7.084;2023-10-31T14:38:36;18.20;63.80
37560;DHT22;23398;50.928;7.084;2023-10-31T14:41:02;18.20;63.90
37560;DHT22;23398;50.928;7.084;2023-10-31T14:43:28;18.10;64.20
37560;DHT22;23398;50.928;7.084;2023-10-31T14:45:54;18.10;64.30
37560;DHT22;23398;50.928;7.084;2023-10-31T14:48:20;18.00;64.70
37560;DHT22;23398;50.928;7.084;2023-10-31T14:50:46;18.00;64.90
37560;DHT22;23398;50.928;7.084;2023-10-31T14:53:12;18.00;65.00
37560;DHT22;23398;50.928;7.084;2023-10-31T14:55:39;18.00;65.10
37560;DHT22;23398;50.928;7.084;2023-10-31T14:58:05;18.00;65.20
37560;DHT22;23398;50.928;7.084;2023-10-31T15:00:33;18.00;65.40
37560;DHT22;23398;50.928;7.084;2023-10-31T15:02:59;17.90;65.30
37560;DHT22;23398;50.928;7.084;2023-10-31T15:05:24;18.40;66.10
37560;DHT22;23398;50.928;7.084;2023-10-31T15:07:50;17.90;65.70
37560;DHT22;23398;50.928;7.084;2023-10-31T15:10:15;17.90;65.80
37560;DHT22;23398;50.928;7.084;2023-10-31T15:12:41;18.00;65.80
37560;DHT22;23398;50.928;7.084;2023-10-31T15:15:07;18.00;65.50
37560;DHT22;23398;50.928;7.084;2023-10-31T15:17:33;18.00;65.40
37560;DHT22;23398;50.928;7.084;2023-10-31T15:19:59;18.00;65.50
37560;DHT22;23398;50.928;7.084;2023-10-31T15:22:24;18.00;65.50
37560;DHT22;23398;50.928;7.084;2023-10-31T15:24:50;18.00;65.40
37560;DHT22;23398;50.928;7.084;2023-10-31T15:27:15;18.00;65.50
37560;DHT22;23398;50.928;7.084;2023-10-31T15:29:43;18.10;65.60
37560;DHT22;23398;50.928;7.084;2023-10-31T15:32:09;18.00;65.40